Time;durP1;ratioP1;P1;durP2;ratioP2;P2;SDS_P1;SDS_P2;PMS_P1;PMS_P2;Temp;Humidity;BMP_temperature;BMP_pressure;BME280_temperature;BME280_humidity;BME280_pressure;Samples;Min_cycle;Max_cycle;Signal;HPM_P1;HPM_P2
2022/08/28 00:04:10;;;;;;;14.77;11.43;;;19.40;99.90;;;;;;10524911;28;20040;-77
2022/08/28 00:09:12;;;;;;;22.83;14.52;;;19.40;99.90;;;;;;10524743;28;20493;-77
2022/08/28 00:14:17;;;;;;;19.73;14.48;;;19.50;99.90;;;;;;10533853;28;20055;-76
2022/08/28 00:19:22;;;;;;;34.58;17.98;;;19.40;99.90;;;;;;10547070;28;20050;-76
2022/08/28 00:24:24;;;;;;;28.13;19.40;;;19.40;99.90;;;;;;10541213;28;20040;-77
2022/08/28 00:29:27;;;;;;;23.92;18.58;;;19.30;99.90;;;;;;10501578;28;20051;-75
2022/08/28 00:34:31;;;;;;;26.13;18.83;;;19.40;99.90;;;;;;10507944;28;20482;-75
2022/08/28 00:39:33;;;;;;;22.10;16.55;;;19.40;99.90;;;;;;10531492;28;20564;-77
2022/08/28 00:44:35;;;;;;;18.48;14.25;;;19.30;99.90;;;;;;10500838;28;20132;-78
2022/08/28 00:49:47;;;;;;;18.10;14.43;;;19.30;99.90;;;;;;10537423;28;20098;-75
2022/08/28 00:54:54;;;;;;;16.70;13.00;;;19.40;99.90;;;;;;10540203;28;20048;-77
2022/08/28 00:59:56;;;;;;;17.52;12.70;;;19.30;99.90;;;;;;10544035;28;20481;-76
2022/08/28 01:04:59;;;;;;;19.45;14.15;;;19.40;99.90;;;;;;10538878;28;20047;-77
2022/08/28 01:10:02;;;;;;;20.35;15.77;;;19.30;99.90;;;;;;10506138;28;20048;-76
2022/08/28 01:15:09;;;;;;;38.45;19.85;;;19.50;99.90;;;;;;10510809;28;20071;-78
2022/08/28 01:20:20;;;;;;;29.08;20.33;;;19.40;99.90;;;;;;10511008;28;20051;-76
2022/08/28 01:25:27;;;;;;;37.45;20.85;;;19.20;99.90;;;;;;10458777;28;20052;-77
2022/08/28 01:30:30;;;;;;;28.58;20.50;;;19.20;99.90;;;;;;10483879;28;20052;-79
2022/08/28 01:35:36;;;;;;;23.85;18.60;;;19.20;99.90;;;;;;10522370;28;20052;-76
2022/08/28 01:40:42;;;;;;;22.35;16.23;;;19.20;99.90;;;;;;10509714;28;20051;-79
2022/08/28 01:45:51;;;;;;;29.75;20.50;;;19.30;99.90;;;;;;10457733;28;20049;-78
2022/08/28 01:50:54;;;;;;;29.65;20.92;;;19.30;99.90;;;;;;10517575;28;20099;-78
2022/08/28 01:55:59;;;;;;;30.52;21.35;;;19.40;99.90;;;;;;10508019;28;20090;-76
2022/08/28 02:01:01;;;;;;;29.30;20.75;;;19.40;99.90;;;;;;10536575;28;20044;-76
2022/08/28 02:06:03;;;;;;;31.88;22.70;;;19.50;99.90;;;;;;10507703;28;20055;-78
2022/08/28 02:11:08;;;;;;;35.20;24.27;;;19.50;99.90;;;;;;10540064;28;20044;-79
2022/08/28 02:16:11;;;;;;;35.92;23.67;;;19.50;99.90;;;;;;10530749;28;20383;-78
2022/08/28 02:21:13;;;;;;;30.13;22.05;;;19.50;99.90;;;;;;10538973;28;20524;-77
2022/08/28 02:26:17;;;;;;;30.60;22.10;;;19.60;99.90;;;;;;10514651;28;20040;-75
2022/08/28 02:31:19;;;;;;;32.15;23.13;;;19.60;99.90;;;;;;10497232;28;20063;-76
2022/08/28 02:36:21;;;;;;;27.27;19.42;;;19.60;99.90;;;;;;10500475;28;20457;-74
2022/08/28 02:41:25;;;;;;;28.92;21.33;;;19.60;99.90;;;;;;10496651;28;20056;-77
2022/08/28 02:46:27;;;;;;;31.23;23.52;;;19.60;99.90;;;;;;10529703;28;20055;-77
2022/08/28 02:51:33;;;;;;;33.42;24.25;;;19.50;99.90;;;;;;10519069;28;20528;-78
2022/08/28 02:56:36;;;;;;;29.63;22.38;;;19.50;99.90;;;;;;10537127;28;20127;-77
2022/08/28 03:01:39;;;;;;;27.83;20.85;;;19.50;99.90;;;;;;10538779;28;20047;-76
2022/08/28 03:06:41;;;;;;;28.73;22.13;;;19.40;99.90;;;;;;10519495;28;20460;-78
2022/08/28 03:11:44;;;;;;;28.77;21.17;;;19.40;99.90;;;;;;10508437;28;20051;-77
2022/08/28 03:16:46;;;;;;;28.50;23.13;;;19.40;99.90;;;;;;10508357;28;20048;-77
2022/08/28 03:21:48;;;;;;;25.58;21.27;;;19.40;99.90;;;;;;10529426;28;20044;-76
2022/08/28 03:26:52;;;;;;;28.10;22.02;;;19.40;99.90;;;;;;10552329;28;20041;-76
2022/08/28 03:31:54;;;;;;;30.35;23.30;;;19.40;99.90;;;;;;10521210;28;20059;-78
2022/08/28 03:36:56;;;;;;;26.58;21.88;;;19.40;99.90;;;;;;10536463;28;20059;-78
2022/08/28 03:41:59;;;;;;;30.00;22.17;;;19.40;99.90;;;;;;10515428;28;20052;-76
2022/08/28 03:47:01;;;;;;;28.42;21.83;;;19.50;99.90;;;;;;10543800;28;20067;-76
2022/08/28 03:52:04;;;;;;;28.95;21.45;;;19.50;99.90;;;;;;10503057;28;20056;-76
2022/08/28 03:57:08;;;;;;;28.98;22.55;;;19.50;99.90;;;;;;10539029;28;20044;-75
2022/08/28 04:02:10;;;;;;;27.52;21.30;;;19.50;99.90;;;;;;10502175;28;20051;-79
2022/08/28 04:07:12;;;;;;;28.67;21.42;;;19.50;99.90;;;;;;10515093;28;20048;-78
2022/08/28 04:12:16;;;;;;;27.33;20.52;;;19.50;99.90;;;;;;10542486;28;20048;-77
2022/08/28 04:17:18;;;;;;;30.50;21.10;;;19.50;99.90;;;;;;10540019;28;20055;-77
2022/08/28 04:22:21;;;;;;;26.65;20.00;;;19.50;99.90;;;;;;10514160;28;20102;-77
2022/08/28 04:27:24;;;;;;;28.63;20.73;;;19.50;99.90;;;;;;10518252;28;20041;-78
2022/08/28 04:32:27;;;;;;;30.00;22.05;;;19.50;99.90;;;;;;10516251;28;20047;-78
2022/08/28 04:37:29;;;;;;;34.60;24.05;;;19.30;99.90;;;;;;10509769;28;20045;-78
2022/08/28 04:42:32;;;;;;;29.45;22.30;;;19.50;99.90;;;;;;10516993;28;20055;-76
2022/08/28 04:47:36;;;;;;;28.08;20.83;;;19.50;99.90;;;;;;10532334;28;20406;-77
2022/08/28 04:52:39;;;;;;;32.83;21.42;;;19.70;99.90;;;;;;10504969;28;20062;-79
2022/08/28 04:57:42;;;;;;;26.95;20.30;;;19.70;99.90;;;;;;10540112;28;20055;-75
2022/08/28 05:02:44;;;;;;;27.10;20.05;;;19.80;99.90;;;;;;10516580;28;20056;-73
2022/08/28 05:07:46;;;;;;;30.05;20.80;;;19.80;99.90;;;;;;10513581;28;20040;-74
2022/08/28 05:12:50;;;;;;;31.77;21.70;;;19.80;99.90;;;;;;10517461;28;20051;-77
2022/08/28 05:17:52;;;;;;;29.65;21.42;;;19.70;99.90;;;;;;10524866;28;20045;-77
2022/08/28 05:22:54;;;;;;;26.00;20.70;;;19.70;99.90;;;;;;10495838;28;20053;-75
2022/08/28 05:27:58;;;;;;;33.83;22.40;;;19.70;99.90;;;;;;10499092;28;20052;-74
2022/08/28 05:33:00;;;;;;;31.20;23.45;;;19.70;99.90;;;;;;10498347;28;20106;-73
2022/08/28 05:38:03;;;;;;;28.45;21.85;;;19.70;99.90;;;;;;10491508;28;20080;-78
2022/08/28 05:43:06;;;;;;;29.48;22.38;;;19.70;99.90;;;;;;10496790;28;20036;-78
2022/08/28 05:48:09;;;;;;;29.92;20.75;;;19.90;99.90;;;;;;10500469;28;20051;-79
2022/08/28 05:53:11;;;;;;;31.10;22.45;;;20.00;99.90;;;;;;10504416;28;20052;-78
2022/08/28 05:58:30;;;;;;;29.95;22.90;;;20.10;99.90;;;;;;10497577;28;20056;-77
2022/08/28 06:03:32;;;;;;;33.50;23.35;;;20.10;99.90;;;;;;10502633;28;20076;-75
2022/08/28 06:08:34;;;;;;;29.23;21.73;;;20.20;99.90;;;;;;10495683;28;20044;-78
2022/08/28 06:13:38;;;;;;;33.42;23.23;;;20.20;99.90;;;;;;10498090;28;20040;-78
2022/08/28 06:18:40;;;;;;;32.63;23.15;;;20.20;99.90;;;;;;10496056;28;20060;-77
2022/08/28 06:23:43;;;;;;;33.85;23.00;;;20.20;99.90;;;;;;10518820;28;20044;-76
2022/08/28 06:28:46;;;;;;;33.60;24.20;;;20.30;99.90;;;;;;10518853;28;20055;-78
2022/08/28 06:33:48;;;;;;;29.40;22.70;;;20.40;99.90;;;;;;10526408;28;20051;-75
2022/08/28 06:38:50;;;;;;;31.40;23.30;;;20.40;99.90;;;;;;10523500;28;20044;-78
2022/08/28 06:43:55;;;;;;;30.60;21.52;;;20.50;99.90;;;;;;10488450;28;20044;-77
2022/08/28 06:48:57;;;;;;;29.55;21.58;;;20.60;99.90;;;;;;10497774;28;20044;-78
2022/08/28 06:53:59;;;;;;;28.88;21.25;;;20.70;99.90;;;;;;10488108;28;20049;-78
2022/08/28 06:59:03;;;;;;;27.80;19.52;;;20.70;99.90;;;;;;10498565;28;20041;-78
2022/08/28 07:04:13;;;;;;;30.20;20.67;;;20.80;99.90;;;;;;10520824;28;20064;-75
2022/08/28 07:09:16;;;;;;;28.60;21.02;;;20.90;99.90;;;;;;10539621;28;20506;-77
2022/08/28 07:14:20;;;;;;;30.63;21.75;;;20.90;99.90;;;;;;10529726;28;20044;-77
2022/08/28 07:19:22;;;;;;;25.50;18.00;;;20.90;99.90;;;;;;10518736;28;20047;-79
2022/08/28 07:24:25;;;;;;;27.50;20.13;;;20.90;99.90;;;;;;10511981;28;20099;-78
2022/08/28 07:29:28;;;;;;;25.75;18.98;;;20.90;99.90;;;;;;10507367;28;20055;-77
2022/08/28 07:34:30;;;;;;;27.17;18.08;;;21.00;99.90;;;;;;10527291;28;20048;-80
2022/08/28 07:39:33;;;;;;;25.10;18.42;;;21.10;99.90;;;;;;10535329;28;20509;-79
2022/08/28 07:44:49;;;;;;;25.38;18.95;;;21.10;99.90;;;;;;10505486;28;20051;-79
2022/08/28 07:49:52;;;;;;;25.77;18.80;;;21.10;99.90;;;;;;10539670;28;20717;-79
2022/08/28 07:54:54;;;;;;;26.17;18.48;;;21.10;99.90;;;;;;10511284;28;20052;-81
2022/08/28 07:59:58;;;;;;;24.30;17.63;;;21.20;99.90;;;;;;10544534;28;20044;-80
2022/08/28 08:05:00;;;;;;;25.55;18.65;;;21.20;99.90;;;;;;10518505;28;20055;-82
2022/08/28 08:10:02;;;;;;;26.83;18.15;;;21.30;99.90;;;;;;10536531;28;20547;-83
2022/08/28 08:15:08;;;;;;;23.00;16.48;;;21.30;99.90;;;;;;10528742;28;20131;-86
2022/08/28 08:20:11;;;;;;;22.75;16.15;;;21.40;99.90;;;;;;10549717;28;20131;-78
2022/08/28 08:25:13;;;;;;;24.20;16.95;;;21.60;99.90;;;;;;10543527;28;20051;-78
2022/08/28 08:30:17;;;;;;;22.40;16.17;;;21.70;99.90;;;;;;10485771;28;20068;-82
2022/08/28 08:35:19;;;;;;;22.55;15.38;;;21.70;99.90;;;;;;10535405;28;20060;-79
2022/08/28 08:40:22;;;;;;;19.65;12.38;;;21.90;99.90;;;;;;10536361;28;20049;-83
2022/08/28 08:45:28;;;;;;;20.80;14.82;;;22.00;99.90;;;;;;10497988;28;20049;-82
2022/08/28 08:50:34;;;;;;;17.17;12.38;;;22.00;99.90;;;;;;10501553;28;20123;-82
2022/08/28 08:55:45;;;;;;;17.77;12.85;;;22.10;99.90;;;;;;10506575;28;20052;-83
2022/08/28 09:00:59;;;;;;;17.75;11.35;;;22.10;99.90;;;;;;10490055;28;20049;-84
2022/08/28 09:06:05;;;;;;;17.98;12.73;;;22.00;99.90;;;;;;10477750;28;20402;-76
2022/08/28 09:11:22;;;;;;;16.75;11.57;;;22.10;99.90;;;;;;10498403;28;20048;-76
2022/08/28 09:16:32;;;;;;;16.10;10.90;;;22.10;99.90;;;;;;10510266;28;20044;-78
2022/08/28 09:21:41;;;;;;;15.48;11.32;;;22.10;99.90;;;;;;10541516;28;20059;-77
2022/08/28 09:26:51;;;;;;;15.63;10.60;;;22.30;99.90;;;;;;10517196;28;20044;-79
2022/08/28 09:31:55;;;;;;;14.80;10.35;;;22.50;99.90;;;;;;10497567;28;20052;-77
2022/08/28 09:36:59;;;;;;;13.02;9.45;;;22.60;99.90;;;;;;10517404;28;20044;-78
2022/08/28 09:47:48;;;;;;;14.23;9.00;;;22.70;99.90;;;;;;10507858;28;20041;-73
2022/08/28 09:52:52;;;;;;;11.93;9.00;;;22.80;99.90;;;;;;10485625;28;20053;-74
2022/08/28 09:57:55;;;;;;;14.60;9.00;;;22.80;99.90;;;;;;10466562;28;20055;-75
2022/08/28 10:03:13;;;;;;;12.50;7.80;;;22.90;99.90;;;;;;10537925;28;20040;-75
2022/08/28 10:08:29;;;;;;;10.38;7.03;;;23.10;99.90;;;;;;10514569;28;20123;-75
2022/08/28 10:13:40;;;;;;;12.48;7.68;;;23.20;99.90;;;;;;10515211;28;20060;-74
2022/08/28 10:18:51;;;;;;;9.77;6.35;;;23.10;99.90;;;;;;10496988;28;20041;-74
2022/08/28 10:24:22;;;;;;;9.73;6.38;;;23.40;99.90;;;;;;10493741;28;20072;-74
2022/08/28 10:29:38;;;;;;;9.45;6.43;;;23.60;99.90;;;;;;10504220;28;20055;-76
2022/08/28 10:34:59;;;;;;;10.07;6.75;;;23.50;99.90;;;;;;10507001;28;20041;-76
2022/08/28 10:40:05;;;;;;;10.98;7.15;;;23.70;99.90;;;;;;10555930;28;20452;-73
2022/08/28 10:45:14;;;;;;;10.77;6.85;;;23.70;99.60;;;;;;10523750;28;20407;-76
2022/08/28 10:50:25;;;;;;;10.68;6.75;;;23.60;99.70;;;;;;10524583;28;20551;-77
2022/08/28 10:55:35;;;;;;;9.45;6.43;;;23.90;99.00;;;;;;10495331;28;20056;-79
2022/08/28 11:00:41;;;;;;;10.60;7.03;;;24.00;98.60;;;;;;10501661;28;20045;-77
2022/08/28 11:05:53;;;;;;;9.25;6.32;;;24.10;98.80;;;;;;10540198;28;20051;-77
2022/08/28 11:10:57;;;;;;;8.85;6.03;;;24.10;97.70;;;;;;10504293;28;20048;-79
2022/08/28 11:15:59;;;;;;;9.30;6.80;;;24.00;98.30;;;;;;10508820;28;20044;-77
2022/08/28 11:21:09;;;;;;;9.23;6.80;;;23.90;98.80;;;;;;10513455;28;20032;-78
2022/08/28 11:26:14;;;;;;;9.88;6.60;;;23.80;98.60;;;;;;10521688;28;20098;-79
2022/08/28 11:31:35;;;;;;;9.98;6.70;;;24.10;99.80;;;;;;10538929;28;20489;-76
2022/08/28 11:37:01;;;;;;;10.38;6.85;;;24.30;99.00;;;;;;10513293;28;20052;-79
2022/08/28 11:42:36;;;;;;;9.40;6.25;;;24.40;99.70;;;;;;10527807;28;20068;-77
2022/08/28 11:47:59;;;;;;;9.52;6.47;;;24.60;97.60;;;;;;10498421;28;20052;-73
2022/08/28 11:53:44;;;;;;;11.95;7.18;;;24.80;97.90;;;;;;10500118;28;20052;-72
2022/08/28 11:58:56;;;;;;;12.68;6.78;;;24.70;97.70;;;;;;10507245;28;20410;-78
2022/08/28 12:04:01;;;;;;;8.73;7.00;;;24.80;97.50;;;;;;10504081;28;20040;-74
2022/08/28 12:09:04;;;;;;;9.63;6.10;;;24.60;97.60;;;;;;10503238;28;20052;-76
2022/08/28 12:14:08;;;;;;;9.93;6.25;;;24.80;97.20;;;;;;10529884;28;20410;-76
2022/08/28 12:19:10;;;;;;;12.35;6.40;;;24.80;96.90;;;;;;10510227;28;20170;-76
2022/08/28 12:24:21;;;;;;;8.88;6.25;;;25.10;95.70;;;;;;10519400;28;20063;-75
2022/08/28 12:29:30;;;;;;;7.78;5.63;;;25.00;95.50;;;;;;10499718;28;20125;-76
2022/08/28 12:34:48;;;;;;;8.18;5.05;;;25.30;95.30;;;;;;10507015;28;20054;-78
2022/08/28 12:39:53;;;;;;;7.93;5.75;;;25.60;92.90;;;;;;10496509;28;20048;-76
2022/08/28 12:45:01;;;;;;;7.70;5.57;;;25.90;92.80;;;;;;10523350;28;20490;-76
2022/08/28 12:50:27;;;;;;;7.18;5.35;;;25.90;92.20;;;;;;10457821;28;20056;-78
2022/08/28 12:55:32;;;;;;;8.85;5.60;;;26.20;91.70;;;;;;10515248;28;20060;-76
2022/08/28 13:00:35;;;;;;;7.60;5.53;;;26.30;93.00;;;;;;10483028;28;20087;-78
2022/08/28 13:05:39;;;;;;;8.55;5.82;;;26.10;93.20;;;;;;10487242;28;20053;-76
2022/08/28 13:10:50;;;;;;;7.15;5.50;;;26.20;92.70;;;;;;10499476;28;20072;-76
2022/08/28 13:15:56;;;;;;;10.90;5.95;;;26.40;92.30;;;;;;10495941;28;20052;-77
2022/08/28 13:21:22;;;;;;;6.85;4.70;;;26.50;92.20;;;;;;10520009;28;20055;-76
2022/08/28 13:26:32;;;;;;;7.17;5.10;;;26.90;91.20;;;;;;10500675;28;20064;-74
2022/08/28 13:31:38;;;;;;;7.20;4.50;;;27.20;90.70;;;;;;10520042;28;20076;-78
2022/08/28 13:36:47;;;;;;;8.77;4.40;;;27.50;88.70;;;;;;10539637;28;20052;-75
2022/08/28 13:41:54;;;;;;;5.45;4.00;;;27.80;84.40;;;;;;10511762;28;20484;-76
2022/08/28 13:46:56;;;;;;;9.65;4.53;;;27.90;85.80;;;;;;10493178;28;20065;-75
2022/08/28 13:52:00;;;;;;;6.72;4.70;;;28.20;86.00;;;;;;10520779;28;20055;-76
2022/08/28 13:57:04;;;;;;;6.82;4.50;;;27.80;84.20;;;;;;10466211;28;20446;-75
2022/08/28 14:07:31;;;;;;;6.20;4.32;;;27.40;85.00;;;;;;10452372;28;20139;-75
2022/08/28 14:12:34;;;;;;;6.85;4.20;;;27.90;84.60;;;;;;10531876;28;20055;-76
2022/08/28 14:17:36;;;;;;;7.95;4.70;;;28.40;82.40;;;;;;10483532;28;20045;-76
2022/08/28 14:22:38;;;;;;;6.95;4.20;;;28.70;80.40;;;;;;10535008;28;20052;-77
2022/08/28 14:27:42;;;;;;;7.80;4.18;;;29.00;79.30;;;;;;10526498;28;20067;-78
2022/08/28 14:32:45;;;;;;;6.30;4.00;;;29.10;77.10;;;;;;10481760;28;20049;-75
2022/08/28 14:37:47;;;;;;;5.90;3.67;;;29.50;76.50;;;;;;10459910;28;20053;-74
2022/08/28 14:42:52;;;;;;;6.60;4.00;;;30.00;74.40;;;;;;10530596;28;20048;-74
2022/08/28 14:47:54;;;;;;;6.45;4.10;;;30.20;73.30;;;;;;10546643;28;20050;-77
2022/08/28 14:52:56;;;;;;;6.88;4.15;;;30.70;71.80;;;;;;10545356;28;20061;-76
2022/08/28 14:57:59;;;;;;;8.02;4.10;;;30.00;74.70;;;;;;10535565;28;20088;-78
2022/08/28 15:03:01;;;;;;;7.53;4.65;;;29.60;75.10;;;;;;10533989;28;20194;-75
2022/08/28 15:08:07;;;;;;;5.95;4.28;;;29.30;74.80;;;;;;10571926;28;20062;-74
2022/08/28 15:13:11;;;;;;;7.20;4.57;;;29.20;76.70;;;;;;10534506;28;20048;-76
2022/08/28 15:18:14;;;;;;;8.32;4.60;;;28.80;75.40;;;;;;10495598;28;20458;-78
2022/08/28 15:23:16;;;;;;;6.53;4.22;;;28.70;76.40;;;;;;10488679;28;20510;-76
2022/08/28 15:28:20;;;;;;;7.93;4.70;;;29.00;77.90;;;;;;10496352;28;20055;-77
2022/08/28 15:33:23;;;;;;;6.45;4.40;;;28.90;76.40;;;;;;10464025;28;20048;-76
2022/08/28 15:38:25;;;;;;;6.97;4.25;;;28.80;76.10;;;;;;10516084;28;20052;-76
2022/08/28 15:43:29;;;;;;;5.88;4.05;;;29.10;75.60;;;;;;10483930;28;20048;-77
2022/08/28 15:48:32;;;;;;;7.68;4.55;;;28.90;76.30;;;;;;10511190;28;20052;-77
2022/08/28 15:53:34;;;;;;;6.40;4.18;;;29.00;73.80;;;;;;10535021;28;20094;-77
2022/08/28 15:58:38;;;;;;;7.22;3.97;;;29.30;73.50;;;;;;10540457;28;20056;-77
2022/08/28 16:03:41;;;;;;;6.03;3.90;;;29.20;73.60;;;;;;10526408;28;20425;-78
2022/08/28 16:08:44;;;;;;;7.88;4.10;;;29.20;74.00;;;;;;10509304;28;20055;-77
2022/08/28 16:13:48;;;;;;;9.07;6.20;;;29.30;72.20;;;;;;10498509;28;20059;-75
2022/08/28 16:18:51;;;;;;;12.27;8.77;;;29.30;71.90;;;;;;10509774;28;20055;-78
2022/08/28 16:23:53;;;;;;;6.72;4.00;;;29.30;72.70;;;;;;10509545;28;20490;-77
2022/08/28 16:28:57;;;;;;;6.70;3.75;;;29.80;70.90;;;;;;10458160;28;20051;-76
2022/08/28 16:33:59;;;;;;;5.95;4.07;;;29.50;70.80;;;;;;10489038;28;20051;-78
2022/08/28 16:39:01;;;;;;;7.00;3.80;;;29.40;71.30;;;;;;10516486;28;20071;-78
2022/08/28 16:44:05;;;;;;;6.43;3.78;;;29.60;70.90;;;;;;10498724;28;20052;-79
2022/08/28 16:49:08;;;;;;;6.32;4.03;;;29.50;70.40;;;;;;10499664;28;20049;-80
2022/08/28 16:54:10;;;;;;;6.15;3.95;;;29.70;71.40;;;;;;10494640;28;20044;-79
2022/08/28 16:59:15;;;;;;;8.10;4.32;;;29.80;69.70;;;;;;10506429;28;20045;-82
2022/08/28 17:04:17;;;;;;;5.82;3.88;;;29.20;69.20;;;;;;10519193;28;20060;-77
2022/08/28 17:09:21;;;;;;;5.57;3.58;;;29.10;70.30;;;;;;10532578;28;20052;-76
2022/08/28 17:14:29;;;;;;;6.85;3.83;;;29.00;70.40;;;;;;10538087;28;20083;-81
2022/08/28 17:19:31;;;;;;;;;;;28.90;69.40;;;;;;10537820;28;20066;-81
2022/08/28 17:24:33;;;;;;;6.00;3.70;;;28.70;69.60;;;;;;10517950;28;19920;-76
2022/08/28 17:29:37;;;;;;;6.60;4.68;;;28.60;70.20;;;;;;10488751;28;20044;-79
2022/08/28 17:34:40;;;;;;;9.77;6.53;;;28.30;70.50;;;;;;10497506;28;20064;-76
2022/08/28 17:39:44;;;;;;;32.55;21.52;;;28.30;73.40;;;;;;10503000;28;20060;-77
2022/08/28 17:44:48;;;;;;;7.30;4.97;;;28.20;73.90;;;;;;10507697;28;20098;-76
2022/08/28 17:49:51;;;;;;;6.75;4.03;;;28.00;75.50;;;;;;10535382;28;20048;-74
2022/08/28 17:54:53;;;;;;;7.43;3.85;;;27.90;77.70;;;;;;10483007;28;20041;-75
2022/08/28 17:59:57;;;;;;;7.57;4.25;;;27.60;78.30;;;;;;10493448;28;20083;-73
2022/08/28 18:04:59;;;;;;;6.78;4.00;;;27.30;79.20;;;;;;10493607;28;20470;-75
2022/08/28 18:10:01;;;;;;;5.13;3.90;;;27.10;80.90;;;;;;10493745;28;20513;-77
2022/08/28 18:15:07;;;;;;;7.45;3.80;;;27.00;81.10;;;;;;10507542;28;20063;-74
2022/08/28 18:20:11;;;;;;;6.60;3.67;;;26.80;81.30;;;;;;10511301;28;20054;-76
2022/08/28 18:25:40;;;;;;;10.25;4.22;;;26.60;81.70;;;;;;10491861;28;20084;-74
2022/08/28 18:30:39;;;;;;;5.95;3.92;;;26.40;83.00;;;;;;10495943;28;20048;-74
2022/08/28 18:35:42;;;;;;;8.40;4.25;;;26.20;82.80;;;;;;10493396;28;20151;-74
2022/08/28 18:40:46;;;;;;;6.72;4.10;;;26.00;84.00;;;;;;10511983;28;20076;-75
2022/08/28 18:45:50;;;;;;;7.50;4.40;;;25.70;85.00;;;;;;10532855;28;20058;-74
2022/08/28 18:50:52;;;;;;;6.88;4.50;;;25.60;86.50;;;;;;10517116;28;20059;-75
2022/08/28 18:55:54;;;;;;;7.45;4.38;;;25.30;88.00;;;;;;10511839;28;20056;-77
2022/08/28 19:00:57;;;;;;;9.45;4.65;;;25.10;89.50;;;;;;10500593;28;20072;-77
2022/08/28 19:05:59;;;;;;;8.63;4.70;;;25.00;90.30;;;;;;10491747;28;20044;-78
2022/08/28 19:11:07;;;;;;;7.32;4.38;;;24.90;90.60;;;;;;10505925;28;20044;-78
2022/08/28 19:16:15;;;;;;;7.60;4.47;;;24.70;91.30;;;;;;10512589;28;20044;-77
2022/08/28 19:21:19;;;;;;;10.95;4.90;;;24.60;92.30;;;;;;10504069;28;20563;-76
2022/08/28 19:26:21;;;;;;;22.73;12.05;;;24.40;93.40;;;;;;10496748;28;20379;-79
2022/08/28 19:31:26;;;;;;;15.15;8.80;;;24.30;94.30;;;;;;10522582;28;20040;-79
2022/08/28 19:36:29;;;;;;;9.63;5.38;;;24.20;94.70;;;;;;10541931;28;20059;-76
2022/08/28 19:41:32;;;;;;;9.10;5.43;;;24.00;95.20;;;;;;10522296;28;20051;-78
2022/08/28 19:46:38;;;;;;;7.93;5.25;;;24.00;95.80;;;;;;10531130;28;20044;-74
2022/08/28 19:51:41;;;;;;;9.43;5.18;;;23.90;96.00;;;;;;10530872;28;20048;-73
2022/08/28 19:56:43;;;;;;;6.97;5.13;;;23.80;96.20;;;;;;10498737;28;20504;-76
2022/08/28 20:01:46;;;;;;;11.30;5.50;;;23.70;96.50;;;;;;10499944;28;20071;-75
2022/08/28 20:06:48;;;;;;;8.77;5.50;;;23.70;96.70;;;;;;10537960;28;20098;-75
2022/08/28 20:11:51;;;;;;;8.13;5.30;;;23.50;96.50;;;;;;10523740;28;20049;-77
2022/08/28 20:16:55;;;;;;;8.35;5.38;;;23.40;96.90;;;;;;10525943;28;20060;-75
2022/08/28 20:21:57;;;;;;;11.32;5.40;;;23.40;97.00;;;;;;10533102;28;20090;-75
2022/08/28 20:26:59;;;;;;;12.57;5.97;;;23.30;97.00;;;;;;10502383;28;20049;-75
2022/08/28 20:32:03;;;;;;;10.60;5.72;;;23.20;97.40;;;;;;10508474;28;20435;-76
2022/08/28 20:37:06;;;;;;;9.93;5.40;;;23.20;97.00;;;;;;10533654;28;20067;-75
2022/08/28 20:42:08;;;;;;;9.35;6.13;;;23.10;97.20;;;;;;10516627;28;20051;-76
2022/08/28 20:47:14;;;;;;;9.77;6.00;;;23.00;97.40;;;;;;10522115;28;20055;-74
2022/08/28 20:52:16;;;;;;;47.72;28.33;;;23.00;97.50;;;;;;10500315;28;20048;-76
2022/08/28 20:57:21;;;;;;;29.73;18.27;;;22.90;97.70;;;;;;10511053;28;20059;-75
2022/08/28 21:02:27;;;;;;;38.70;24.25;;;22.90;97.80;;;;;;10532367;28;20052;-75
2022/08/28 21:07:29;;;;;;;9.88;6.43;;;22.80;98.00;;;;;;10500302;28;20052;-76
2022/08/28 21:12:31;;;;;;;10.73;6.00;;;22.70;98.00;;;;;;10513881;28;20097;-76
2022/08/28 21:17:35;;;;;;;8.82;5.70;;;22.30;98.30;;;;;;10542144;28;20056;-75
2022/08/28 21:22:38;;;;;;;9.02;6.03;;;22.10;98.70;;;;;;10537144;28;20044;-75
2022/08/28 21:27:40;;;;;;;11.50;5.95;;;22.00;99.00;;;;;;10523938;28;20048;-75
2022/08/28 21:32:44;;;;;;;8.77;5.93;;;22.00;99.10;;;;;;10512404;28;20505;-76
2022/08/28 21:37:48;;;;;;;9.43;6.03;;;21.70;99.40;;;;;;10514780;28;20060;-77
2022/08/28 21:42:50;;;;;;;10.60;6.90;;;21.40;99.90;;;;;;10511124;28;20508;-77
2022/08/28 21:47:54;;;;;;;9.73;6.82;;;21.40;99.90;;;;;;10498584;28;20044;-77
2022/08/28 21:52:56;;;;;;;10.52;7.05;;;21.50;99.90;;;;;;10518632;28;20051;-75
2022/08/28 21:57:58;;;;;;;9.75;7.03;;;21.40;99.90;;;;;;10514366;28;20052;-77
2022/08/28 22:03:02;;;;;;;11.55;6.45;;;21.40;99.90;;;;;;10498182;28;20063;-74
2022/08/28 22:08:04;;;;;;;8.07;6.40;;;21.50;99.90;;;;;;10498686;28;20059;-77
2022/08/28 22:13:07;;;;;;;9.60;6.32;;;21.50;99.90;;;;;;10522781;28;20051;-74
2022/08/28 22:18:12;;;;;;;10.70;5.97;;;21.60;99.90;;;;;;10518043;28;20052;-76
2022/08/28 22:23:16;;;;;;;9.38;6.65;;;21.40;99.90;;;;;;10500392;28;20048;-74
2022/08/28 22:28:18;;;;;;;10.80;6.45;;;21.30;99.90;;;;;;10507623;28;20557;-75
2022/08/28 22:33:22;;;;;;;10.23;6.65;;;21.20;99.90;;;;;;10524304;28;20048;-74
2022/08/28 22:38:24;;;;;;;9.07;6.28;;;21.20;99.90;;;;;;10544004;28;20456;-74
2022/08/28 22:43:27;;;;;;;10.60;6.10;;;21.10;99.90;;;;;;10530321;28;20048;-74
2022/08/28 22:48:30;;;;;;;9.25;5.97;;;21.00;99.90;;;;;;10538977;28;20052;-76
2022/08/28 22:53:33;;;;;;;9.60;6.10;;;20.90;99.90;;;;;;10509546;28;20379;-75
2022/08/28 22:58:36;;;;;;;9.75;6.15;;;20.90;99.90;;;;;;10502667;28;20048;-76
2022/08/28 23:03:39;;;;;;;10.65;6.22;;;20.90;99.90;;;;;;10538857;28;20055;-75
2022/08/28 23:08:42;;;;;;;9.80;6.70;;;20.90;99.90;;;;;;10536822;28;20048;-75
2022/08/28 23:13:44;;;;;;;9.85;6.28;;;20.90;99.90;;;;;;10537017;28;20044;-78
2022/08/28 23:18:47;;;;;;;9.07;5.97;;;20.80;99.90;;;;;;10512395;28;20048;-75
2022/08/28 23:23:50;;;;;;;9.05;6.10;;;20.80;99.90;;;;;;10530448;28;20245;-75
2022/08/28 23:28:52;;;;;;;10.80;6.25;;;20.70;99.90;;;;;;10535616;28;20497;-75
2022/08/28 23:33:55;;;;;;;10.07;6.13;;;20.70;99.90;;;;;;10538776;28;20059;-74
2022/08/28 23:38:57;;;;;;;11.93;7.45;;;20.70;99.90;;;;;;10530381;28;20409;-75
2022/08/28 23:43:59;;;;;;;10.30;6.70;;;20.70;99.90;;;;;;10523394;28;20053;-74
2022/08/28 23:49:03;;;;;;;12.88;6.53;;;20.40;99.90;;;;;;10521217;28;20048;-73
2022/08/28 23:54:06;;;;;;;10.98;6.22;;;20.20;99.90;;;;;;10535591;28;20478;-75
2022/08/28 23:59:08;;;;;;;9.63;5.90;;;20.20;99.90;;;;;;10526835;28;20051;-75
